sensor_id;sensor_type;location;lat;lon;timestamp;pressure;altitude;pressure_sealevel;temperature;humidity
53858;BME280;39763;51.188;6.690;2023-02-02T00:00:16;101726.00;;;9.90;72.27
53858;BME280;39763;51.188;6.690;2023-02-02T00:01:48;101732.13;;;9.91;72.37
53858;BME280;39763;51.188;6.690;2023-02-02T00:03:20;101732.03;;;9.96;72.62
53858;BME280;39763;51.188;6.690;2023-02-02T00:04:51;101731.22;;;9.94;72.17
53858;BME280;39763;51.188;6.690;2023-02-02T00:06:23;101731.13;;;9.98;72.24
53858;BME280;39763;51.188;6.690;2023-02-02T00:07:55;101733.72;;;10.00;72.13
53858;BME280;39763;51.188;6.690;2023-02-02T00:09:27;101732.84;;;10.01;72.32
53858;BME280;39763;51.188;6.690;2023-02-02T00:11:01;101729.28;;;10.05;72.01
53858;BME280;39763;51.188;6.690;2023-02-02T00:12:32;101721.38;;;10.08;71.88
53858;BME280;39763;51.188;6.690;2023-02-02T00:14:04;101724.03;;;10.05;71.96
53858;BME280;39763;51.188;6.690;2023-02-02T00:15:35;101728.44;;;10.03;72.14
53858;BME280;39763;51.188;6.690;2023-02-02T00:17:07;101727.56;;;10.02;72.26
53858;BME280;39763;51.188;6.690;2023-02-02T00:18:39;101720.56;;;10.04;72.14
53858;BME280;39763;51.188;6.690;2023-02-02T00:20:11;101724.09;;;10.00;71.93
53858;BME280;39763;51.188;6.690;2023-02-02T00:21:43;101724.06;;;10.03;71.82
53858;BME280;39763;51.188;6.690;2023-02-02T00:23:15;101721.31;;;10.11;72.19
53858;BME280;39763;51.188;6.690;2023-02-02T00:24:46;101709.84;;;10.16;71.75
53858;BME280;39763;51.188;6.690;2023-02-02T00:26:19;101706.28;;;10.23;71.52
53858;BME280;39763;51.188;6.690;2023-02-02T00:27:51;101712.28;;;10.30;71.40
53858;BME280;39763;51.188;6.690;2023-02-02T00:29:23;101710.56;;;10.28;71.08
53858;BME280;39763;51.188;6.690;2023-02-02T00:30:55;101708.09;;;10.20;71.14
53858;BME280;39763;51.188;6.690;2023-02-02T00:32:27;101713.22;;;10.26;71.28
53858;BME280;39763;51.188;6.690;2023-02-02T00:33:58;101705.31;;;10.29;71.47
53858;BME280;39763;51.188;6.690;2023-02-02T00:35:32;101701.78;;;10.30;70.89
53858;BME280;39763;51.188;6.690;2023-02-02T00:37:04;101705.50;;;10.18;71.16
53858;BME280;39763;51.188;6.690;2023-02-02T00:38:35;101713.38;;;10.15;71.57
53858;BME280;39763;51.188;6.690;2023-02-02T00:40:08;101703.81;;;10.10;71.87
53858;BME280;39763;51.188;6.690;2023-02-02T00:41:41;101702.03;;;10.13;71.83
53858;BME280;39763;51.188;6.690;2023-02-02T00:43:13;101718.66;;;10.12;71.87
53858;BME280;39763;51.188;6.690;2023-02-02T00:44:44;101704.66;;;10.13;71.88
53858;BME280;39763;51.188;6.690;2023-02-02T00:46:37;101699.56;;;10.04;72.37
53858;BME280;39763;51.188;6.690;2023-02-02T00:48:09;101711.91;;;9.96;72.95
53858;BME280;39763;51.188;6.690;2023-02-02T00:49:44;101710.16;;;9.97;72.92
53858;BME280;39763;51.188;6.690;2023-02-02T00:51:15;101708.34;;;10.02;73.00
53858;BME280;39763;51.188;6.690;2023-02-02T00:52:47;101705.72;;;10.02;73.42
53858;BME280;39763;51.188;6.690;2023-02-02T00:54:19;101710.09;;;10.01;73.08
53858;BME280;39763;51.188;6.690;2023-02-02T00:55:50;101709.19;;;10.04;73.09
53858;BME280;39763;51.188;6.690;2023-02-02T00:57:23;101713.53;;;10.05;72.92
53858;BME280;39763;51.188;6.690;2023-02-02T00:58:55;101713.63;;;9.99;72.84
53858;BME280;39763;51.188;6.690;2023-02-02T01:00:27;101719.78;;;9.96;73.10
53858;BME280;39763;51.188;6.690;2023-02-02T01:01:58;101712.88;;;9.92;73.31
53858;BME280;39763;51.188;6.690;2023-02-02T01:03:30;101722.59;;;9.84;73.27
53858;BME280;39763;51.188;6.690;2023-02-02T01:05:02;101720.84;;;9.83;73.77
53858;BME280;39763;51.188;6.690;2023-02-02T01:06:33;101719.09;;;9.83;73.44
53858;BME280;39763;51.188;6.690;2023-02-02T01:08:05;101721.69;;;9.86;73.29
53858;BME280;39763;51.188;6.690;2023-02-02T01:09:37;101729.59;;;9.82;73.57
53858;BME280;39763;51.188;6.690;2023-02-02T01:11:08;101732.31;;;9.79;73.88
53858;BME280;39763;51.188;6.690;2023-02-02T01:12:41;101729.59;;;9.82;74.10
53858;BME280;39763;51.188;6.690;2023-02-02T01:14:13;101737.47;;;9.83;73.91
53858;BME280;39763;51.188;6.690;2023-02-02T01:15:45;101741.09;;;9.75;74.62
53858;BME280;39763;51.188;6.690;2023-02-02T01:17:16;101744.63;;;9.72;74.86
53858;BME280;39763;51.188;6.690;2023-02-02T01:18:49;101747.19;;;9.77;74.35
53858;BME280;39763;51.188;6.690;2023-02-02T01:20:21;101736.75;;;9.71;75.06
53858;BME280;39763;51.188;6.690;2023-02-02T01:21:53;101741.13;;;9.72;75.34
53858;BME280;39763;51.188;6.690;2023-02-02T01:23:24;101746.34;;;9.73;75.41
53858;BME280;39763;51.188;6.690;2023-02-02T01:24:57;101753.31;;;9.76;75.69
53858;BME280;39763;51.188;6.690;2023-02-02T01:26:28;101748.00;;;9.80;75.21
53858;BME280;39763;51.188;6.690;2023-02-02T01:28:02;101750.53;;;9.88;75.46
53858;BME280;39763;51.188;6.690;2023-02-02T01:29:33;101747.13;;;9.80;75.47
53858;BME280;39763;51.188;6.690;2023-02-02T01:31:05;101743.59;;;9.82;75.53
53858;BME280;39763;51.188;6.690;2023-02-02T01:32:37;101748.84;;;9.81;75.65
53858;BME280;39763;51.188;6.690;2023-02-02T01:34:09;101745.41;;;9.79;76.25
53858;BME280;39763;51.188;6.690;2023-02-02T01:35:43;101734.94;;;9.77;76.22
53858;BME280;39763;51.188;6.690;2023-02-02T01:37:15;101748.19;;;9.67;76.69
53858;BME280;39763;51.188;6.690;2023-02-02T01:38:47;101749.94;;;9.65;76.55
53858;BME280;39763;51.188;6.690;2023-02-02T01:40:19;101752.63;;;9.62;76.81
53858;BME280;39763;51.188;6.690;2023-02-02T01:41:50;101761.41;;;9.58;77.47
53858;BME280;39763;51.188;6.690;2023-02-02T01:43:25;101753.69;;;9.48;78.04
53858;BME280;39763;51.188;6.690;2023-02-02T01:45:01;101753.69;;;9.48;77.69
53858;BME280;39763;51.188;6.690;2023-02-02T01:46:34;101753.56;;;9.56;77.89
53858;BME280;39763;51.188;6.690;2023-02-02T01:48:06;101762.19;;;9.66;77.75
53858;BME280;39763;51.188;6.690;2023-02-02T01:49:39;101759.44;;;9.75;77.40
53858;BME280;39763;51.188;6.690;2023-02-02T01:51:12;101756.66;;;9.87;76.71
53858;BME280;39763;51.188;6.690;2023-02-02T01:52:44;101753.00;;;9.97;76.64
53858;BME280;39763;51.188;6.690;2023-02-02T01:54:17;101747.69;;;10.02;76.20
53858;BME280;39763;51.188;6.690;2023-02-02T01:55:50;101758.94;;;10.10;75.75
53858;BME280;39763;51.188;6.690;2023-02-02T01:57:23;101748.38;;;10.16;75.62
53858;BME280;39763;51.188;6.690;2023-02-02T01:58:56;101758.84;;;10.17;75.32
53858;BME280;39763;51.188;6.690;2023-02-02T02:00:28;101759.72;;;10.16;74.94
53858;BME280;39763;51.188;6.690;2023-02-02T02:02:00;101769.38;;;10.14;75.33
53858;BME280;39763;51.188;6.690;2023-02-02T02:03:35;101760.63;;;10.14;74.85
53858;BME280;39763;51.188;6.690;2023-02-02T02:05:08;101754.53;;;10.13;74.67
53858;BME280;39763;51.188;6.690;2023-02-02T02:06:39;101754.66;;;10.06;74.73
53858;BME280;39763;51.188;6.690;2023-02-02T02:08:12;101754.69;;;10.03;74.95
53858;BME280;39763;51.188;6.690;2023-02-02T02:09:45;101755.56;;;10.03;75.22
53858;BME280;39763;51.188;6.690;2023-02-02T02:11:17;101752.09;;;10.01;75.15
53858;BME280;39763;51.188;6.690;2023-02-02T02:12:49;101752.09;;;10.01;75.04
53858;BME280;39763;51.188;6.690;2023-02-02T02:14:22;101741.59;;;10.01;75.58
53858;BME280;39763;51.188;6.690;2023-02-02T02:16:14;101746.03;;;9.96;75.42
53858;BME280;39763;51.188;6.690;2023-02-02T02:17:53;101747.88;;;9.91;75.60
53858;BME280;39763;51.188;6.690;2023-02-02T02:19:43;101745.31;;;9.85;75.61
53858;BME280;39763;51.188;6.690;2023-02-02T02:21:44;101752.34;;;9.83;76.01
53858;BME280;39763;51.188;6.690;2023-02-02T02:25:48;101740.72;;;9.99;75.61
53858;BME280;39763;51.188;6.690;2023-02-02T02:27:53;101738.88;;;10.09;75.39
53858;BME280;39763;51.188;6.690;2023-02-02T02:29:47;101732.63;;;10.14;75.29
53858;BME280;39763;51.188;6.690;2023-02-02T02:31:37;101739.56;;;10.23;75.07
53858;BME280;39763;51.188;6.690;2023-02-02T02:33:12;101732.44;;;10.30;74.55
53858;BME280;39763;51.188;6.690;2023-02-02T02:34:48;101732.38;;;10.33;74.37
53858;BME280;39763;51.188;6.690;2023-02-02T02:36:26;101727.97;;;10.35;74.18
53858;BME280;39763;51.188;6.690;2023-02-02T02:38:03;101730.59;;;10.35;74.35
53858;BME280;39763;51.188;6.690;2023-02-02T02:39:40;101731.50;;;10.34;74.01
53858;BME280;39763;51.188;6.690;2023-02-02T02:41:16;101738.47;;;10.36;74.20
53858;BME280;39763;51.188;6.690;2023-02-02T02:42:50;101741.06;;;10.38;74.11
53858;BME280;39763;51.188;6.690;2023-02-02T02:44:25;101738.38;;;10.39;74.25
53858;BME280;39763;51.188;6.690;2023-02-02T02:45:59;101734.84;;;10.42;74.21
53858;BME280;39763;51.188;6.690;2023-02-02T02:47:33;101733.94;;;10.44;73.64
53858;BME280;39763;51.188;6.690;2023-02-02T02:49:06;101735.69;;;10.44;73.66
53858;BME280;39763;51.188;6.690;2023-02-02T02:50:39;101736.69;;;10.38;73.49
53858;BME280;39763;51.188;6.690;2023-02-02T02:52:11;101734.97;;;10.36;73.73
53858;BME280;39763;51.188;6.690;2023-02-02T02:53:42;101732.44;;;10.30;74.06
53858;BME280;39763;51.188;6.690;2023-02-02T02:55:14;101737.72;;;10.27;74.12
53858;BME280;39763;51.188;6.690;2023-02-02T02:56:53;101739.56;;;10.21;74.08
53858;BME280;39763;51.188;6.690;2023-02-02T02:58:26;101750.84;;;10.27;74.36
53858;BME280;39763;51.188;6.690;2023-02-02T03:00:06;101743.97;;;10.21;73.76
53858;BME280;39763;51.188;6.690;2023-02-02T03:01:43;101740.50;;;10.14;74.30
53858;BME280;39763;51.188;6.690;2023-02-02T03:03:23;101746.69;;;10.10;74.47
53858;BME280;39763;51.188;6.690;2023-02-02T03:05:00;101739.81;;;10.02;74.38
53858;BME280;39763;51.188;6.690;2023-02-02T03:06:39;101750.31;;;10.02;74.63
53858;BME280;39763;51.188;6.690;2023-02-02T03:08:13;101748.56;;;10.04;74.58
53858;BME280;39763;51.188;6.690;2023-02-02T03:09:47;101749.41;;;10.04;75.10
53858;BME280;39763;51.188;6.690;2023-02-02T03:11:19;101747.56;;;10.09;74.82
53858;BME280;39763;51.188;6.690;2023-02-02T03:12:51;101751.91;;;10.12;74.65
53858;BME280;39763;51.188;6.690;2023-02-02T03:14:23;101743.19;;;10.11;74.50
53858;BME280;39763;51.188;6.690;2023-02-02T03:15:55;101751.19;;;10.04;74.78
53858;BME280;39763;51.188;6.690;2023-02-02T03:17:26;101747.69;;;10.02;74.83
53858;BME280;39763;51.188;6.690;2023-02-02T03:18:59;101745.06;;;10.02;74.71
53858;BME280;39763;51.188;6.690;2023-02-02T03:20:31;101741.59;;;10.01;74.90
53858;BME280;39763;51.188;6.690;2023-02-02T03:22:02;101756.47;;;9.99;74.68
53858;BME280;39763;51.188;6.690;2023-02-02T03:23:34;101746.88;;;9.98;74.75
53858;BME280;39763;51.188;6.690;2023-02-02T03:25:06;101743.31;;;10.02;74.65
53858;BME280;39763;51.188;6.690;2023-02-02T03:26:37;101744.22;;;10.00;74.92
53858;BME280;39763;51.188;6.690;2023-02-02T03:28:09;101746.78;;;10.04;74.88
53858;BME280;39763;51.188;6.690;2023-02-02T03:29:41;101751.16;;;10.05;74.47
53858;BME280;39763;51.188;6.690;2023-02-02T03:31:12;101757.34;;;10.01;74.96
53858;BME280;39763;51.188;6.690;2023-02-02T03:32:44;101759.91;;;10.04;75.11
53858;BME280;39763;51.188;6.690;2023-02-02T03:34:17;101752.00;;;10.07;74.60
53858;BME280;39763;51.188;6.690;2023-02-02T03:35:49;101747.56;;;10.09;75.00
53858;BME280;39763;51.188;6.690;2023-02-02T03:37:21;101756.28;;;10.11;74.65
53858;BME280;39763;51.188;6.690;2023-02-02T03:38:52;101755.44;;;10.09;74.60
53858;BME280;39763;51.188;6.690;2023-02-02T03:40:23;101759.81;;;10.10;74.41
53858;BME280;39763;51.188;6.690;2023-02-02T03:41:55;101748.50;;;10.08;74.58
53858;BME280;39763;51.188;6.690;2023-02-02T03:43:26;101759.78;;;10.13;74.63
53858;BME280;39763;51.188;6.690;2023-02-02T03:44:58;101752.69;;;10.21;74.87
53858;BME280;39763;51.188;6.690;2023-02-02T03:46:30;101753.44;;;10.30;74.65
53858;BME280;39763;51.188;6.690;2023-02-02T03:48:02;101755.09;;;10.37;74.45
53858;BME280;39763;51.188;6.690;2023-02-02T03:49:35;101751.50;;;10.41;74.19
53858;BME280;39763;51.188;6.690;2023-02-02T03:51:07;101753.34;;;10.36;73.56
53858;BME280;39763;51.188;6.690;2023-02-02T03:52:38;101744.66;;;10.31;73.99
53858;BME280;39763;51.188;6.690;2023-02-02T03:54:10;101752.53;;;10.31;74.13
53858;BME280;39763;51.188;6.690;2023-02-02T03:55:42;101752.59;;;10.28;73.69
53858;BME280;39763;51.188;6.690;2023-02-02T03:57:13;101744.81;;;10.23;73.95
53858;BME280;39763;51.188;6.690;2023-02-02T03:58:45;101750.97;;;10.20;74.00
53858;BME280;39763;51.188;6.690;2023-02-02T04:00:17;101745.69;;;10.22;74.15
53858;BME280;39763;51.188;6.690;2023-02-02T04:01:49;101753.47;;;10.27;73.97
53858;BME280;39763;51.188;6.690;2023-02-02T04:03:20;101760.47;;;10.28;73.87
53858;BME280;39763;51.188;6.690;2023-02-02T04:04:53;101763.97;;;10.27;73.94
53858;BME280;39763;51.188;6.690;2023-02-02T04:06:25;101762.34;;;10.21;73.94
53858;BME280;39763;51.188;6.690;2023-02-02T04:07:56;101758.81;;;10.22;74.29
53858;BME280;39763;51.188;6.690;2023-02-02T04:09:28;101757.81;;;10.29;74.00
53858;BME280;39763;51.188;6.690;2023-02-02T04:10:59;101756.03;;;10.33;73.82
53858;BME280;39763;51.188;6.690;2023-02-02T04:12:31;101763.03;;;10.32;73.69
53858;BME280;39763;51.188;6.690;2023-02-02T04:14:03;101757.78;;;10.32;73.58
53858;BME280;39763;51.188;6.690;2023-02-02T04:15:34;101756.97;;;10.27;73.73
53858;BME280;39763;51.188;6.690;2023-02-02T04:17:06;101755.31;;;10.21;73.93
53858;BME280;39763;51.188;6.690;2023-02-02T04:18:37;101768.34;;;10.28;73.94
53858;BME280;39763;51.188;6.690;2023-02-02T04:20:11;101768.47;;;10.20;73.33
53858;BME280;39763;51.188;6.690;2023-02-02T04:21:42;101765.94;;;10.09;73.80
53858;BME280;39763;51.188;6.690;2023-02-02T04:23:15;101766.00;;;10.06;74.14
53858;BME280;39763;51.188;6.690;2023-02-02T04:24:46;101765.13;;;10.07;74.20
53858;BME280;39763;51.188;6.690;2023-02-02T04:26:18;101757.09;;;10.16;74.06
53858;BME280;39763;51.188;6.690;2023-02-02T04:27:49;101764.00;;;10.25;73.70
53858;BME280;39763;51.188;6.690;2023-02-02T04:29:21;101747.25;;;10.34;73.73
53858;BME280;39763;51.188;6.690;2023-02-02T04:30:53;101765.63;;;10.35;73.23
53858;BME280;39763;51.188;6.690;2023-02-02T04:32:25;101763.94;;;10.30;73.52
53858;BME280;39763;51.188;6.690;2023-02-02T04:33:56;101767.47;;;10.27;73.33
53858;BME280;39763;51.188;6.690;2023-02-02T04:35:29;101769.22;;;10.27;73.12
53858;BME280;39763;51.188;6.690;2023-02-02T04:37:01;101777.94;;;10.29;73.65
53858;BME280;39763;51.188;6.690;2023-02-02T04:38:32;101776.13;;;10.34;73.47
53858;BME280;39763;51.188;6.690;2023-02-02T04:40:04;101769.16;;;10.33;73.13
53858;BME280;39763;51.188;6.690;2023-02-02T04:41:36;101776.16;;;10.32;73.32
53858;BME280;39763;51.188;6.690;2023-02-02T04:43:07;101778.78;;;10.32;73.42
53858;BME280;39763;51.188;6.690;2023-02-02T04:44:39;101774.47;;;10.28;73.16
53858;BME280;39763;51.188;6.690;2023-02-02T04:46:11;101778.09;;;10.19;73.57
53858;BME280;39763;51.188;6.690;2023-02-02T04:47:43;101792.09;;;10.17;73.79
53858;BME280;39763;51.188;6.690;2023-02-02T04:49:14;101792.13;;;10.15;73.46
53858;BME280;39763;51.188;6.690;2023-02-02T04:50:47;101793.16;;;10.05;74.01
53858;BME280;39763;51.188;6.690;2023-02-02T04:52:18;101784.41;;;10.05;74.16
53858;BME280;39763;51.188;6.690;2023-02-02T04:53:50;101786.19;;;10.03;74.34
53858;BME280;39763;51.188;6.690;2023-02-02T04:55:21;101781.81;;;10.02;74.05
53858;BME280;39763;51.188;6.690;2023-02-02T04:56:54;101788.78;;;10.06;74.60
53858;BME280;39763;51.188;6.690;2023-02-02T04:58:25;101782.63;;;10.07;74.06
53858;BME280;39763;51.188;6.690;2023-02-02T04:59:57;101785.25;;;10.07;74.13
53858;BME280;39763;51.188;6.690;2023-02-02T05:01:28;101788.69;;;10.10;74.14
53858;BME280;39763;51.188;6.690;2023-02-02T05:03:01;101785.16;;;10.13;74.19
53858;BME280;39763;51.188;6.690;2023-02-02T05:04:32;101778.16;;;10.13;74.12
53858;BME280;39763;51.188;6.690;2023-02-02T05:06:05;101777.19;;;10.22;74.23
53858;BME280;39763;51.188;6.690;2023-02-02T05:07:37;101783.19;;;10.29;73.97
53858;BME280;39763;51.188;6.690;2023-02-02T05:09:10;101791.09;;;10.27;74.03
53858;BME280;39763;51.188;6.690;2023-02-02T05:10:42;101794.72;;;10.21;74.10
53858;BME280;39763;51.188;6.690;2023-02-02T05:12:13;101796.44;;;10.22;73.89
53858;BME280;39763;51.188;6.690;2023-02-02T05:13:45;101789.47;;;10.21;74.08
53858;BME280;39763;51.188;6.690;2023-02-02T05:15:17;101796.38;;;10.24;74.13
53858;BME280;39763;51.188;6.690;2023-02-02T05:16:49;101788.59;;;10.16;74.47
53858;BME280;39763;51.188;6.690;2023-02-02T05:18:21;101791.22;;;10.21;74.43
53858;BME280;39763;51.188;6.690;2023-02-02T05:19:52;101784.13;;;10.26;74.05
53858;BME280;39763;51.188;6.690;2023-02-02T05:21:25;101788.59;;;10.18;74.42
53858;BME280;39763;51.188;6.690;2023-02-02T05:22:57;101780.72;;;10.21;74.93
53858;BME280;39763;51.188;6.690;2023-02-02T05:24:28;101777.94;;;10.29;74.41
53858;BME280;39763;51.188;6.690;2023-02-02T05:26:00;101781.38;;;10.34;74.48
53858;BME280;39763;51.188;6.690;2023-02-02T05:27:31;101775.31;;;10.29;74.25
53858;BME280;39763;51.188;6.690;2023-02-02T05:29:03;101775.31;;;10.29;74.36
53858;BME280;39763;51.188;6.690;2023-02-02T05:30:37;101765.69;;;10.31;74.18
53858;BME280;39763;51.188;6.690;2023-02-02T05:32:09;101776.13;;;10.34;74.12
53858;BME280;39763;51.188;6.690;2023-02-02T05:33:41;101777.00;;;10.34;73.62
53858;BME280;39763;51.188;6.690;2023-02-02T05:35:12;101769.19;;;10.30;73.77
53858;BME280;39763;51.188;6.690;2023-02-02T05:36:45;101774.44;;;10.30;73.88
53858;BME280;39763;51.188;6.690;2023-02-02T05:38:17;101771.06;;;10.23;73.65
53858;BME280;39763;51.188;6.690;2023-02-02T05:39:48;101772.81;;;10.22;74.12
53858;BME280;39763;51.188;6.690;2023-02-02T05:41:22;101772.84;;;10.18;73.96
53858;BME280;39763;51.188;6.690;2023-02-02T05:42:54;101764.97;;;10.21;74.21
53858;BME280;39763;51.188;6.690;2023-02-02T05:44:25;101778.00;;;10.25;74.34
53858;BME280;39763;51.188;6.690;2023-02-02T05:45:56;101770.06;;;10.30;73.68
53858;BME280;39763;51.188;6.690;2023-02-02T05:47:28;101767.50;;;10.24;73.97
53858;BME280;39763;51.188;6.690;2023-02-02T05:49:00;101757.84;;;10.26;74.02
53858;BME280;39763;51.188;6.690;2023-02-02T05:50:35;101769.16;;;10.33;74.07
53858;BME280;39763;51.188;6.690;2023-02-02T05:52:09;101767.38;;;10.35;73.95
53858;BME280;39763;51.188;6.690;2023-02-02T05:53:45;101770.88;;;10.34;73.87
53858;BME280;39763;51.188;6.690;2023-02-02T05:55:17;101782.31;;;10.30;73.78
53858;BME280;39763;51.188;6.690;2023-02-02T05:56:50;101773.72;;;10.20;74.21
53858;BME280;39763;51.188;6.690;2023-02-02T05:58:22;101777.38;;;10.07;74.59
53858;BME280;39763;51.188;6.690;2023-02-02T05:59:54;101785.28;;;10.05;75.14
53858;BME280;39763;51.188;6.690;2023-02-02T06:01:25;101785.25;;;10.07;74.63
53858;BME280;39763;51.188;6.690;2023-02-02T06:02:57;101793.16;;;10.04;74.72
53858;BME280;39763;51.188;6.690;2023-02-02T06:04:29;101788.81;;;10.01;74.72
53858;BME280;39763;51.188;6.690;2023-02-02T06:06:00;101802.88;;;9.96;75.11
53858;BME280;39763;51.188;6.690;2023-02-02T06:07:33;101798.44;;;10.01;75.36
53858;BME280;39763;51.188;6.690;2023-02-02T06:09:05;101808.09;;;10.00;75.31
53858;BME280;39763;51.188;6.690;2023-02-02T06:10:37;101800.13;;;10.06;75.15
53858;BME280;39763;51.188;6.690;2023-02-02T06:12:09;101788.78;;;10.06;75.07
53858;BME280;39763;51.188;6.690;2023-02-02T06:13:41;101804.50;;;10.07;74.89
53858;BME280;39763;51.188;6.690;2023-02-02T06:15:15;101807.91;;;10.12;74.69
53858;BME280;39763;51.188;6.690;2023-02-02T06:16:47;101808.00;;;10.06;74.88
53858;BME280;39763;51.188;6.690;2023-02-02T06:18:19;101808.88;;;10.07;75.16
53858;BME280;39763;51.188;6.690;2023-02-02T06:19:50;101807.94;;;10.09;75.23
53858;BME280;39763;51.188;6.690;2023-02-02T06:21:22;101815.13;;;9.97;76.05
53858;BME280;39763;51.188;6.690;2023-02-02T06:22:56;101820.50;;;9.87;76.38
53858;BME280;39763;51.188;6.690;2023-02-02T06:24:27;101820.59;;;9.80;76.87
53858;BME280;39763;51.188;6.690;2023-02-02T06:25:59;101816.13;;;9.86;77.15
53858;BME280;39763;51.188;6.690;2023-02-02T06:27:31;101820.66;;;9.77;77.06
53858;BME280;39763;51.188;6.690;2023-02-02T06:29:03;101827.75;;;9.67;77.52
53858;BME280;39763;51.188;6.690;2023-02-02T06:30:35;101827.66;;;9.75;77.81
53858;BME280;39763;51.188;6.690;2023-02-02T06:32:06;101814.47;;;9.79;77.92
53858;BME280;39763;51.188;6.690;2023-02-02T06:33:38;101815.44;;;9.74;77.93
53858;BME280;39763;51.188;6.690;2023-02-02T06:35:10;101806.56;;;9.81;77.36
53858;BME280;39763;51.188;6.690;2023-02-02T06:36:41;101819.66;;;9.85;77.18
53858;BME280;39763;51.188;6.690;2023-02-02T06:38:14;101817.81;;;9.94;77.34
53858;BME280;39763;51.188;6.690;2023-02-02T06:39:46;101819.56;;;9.93;77.11
53858;BME280;39763;51.188;6.690;2023-02-02T06:41:18;101816.91;;;9.95;76.94
53858;BME280;39763;51.188;6.690;2023-02-02T06:42:54;101805.66;;;9.86;77.00
53858;BME280;39763;51.188;6.690;2023-02-02T06:44:26;101812.63;;;9.89;77.23
53858;BME280;39763;51.188;6.690;2023-02-02T06:45:58;101818.59;;;9.99;76.88
53858;BME280;39763;51.188;6.690;2023-02-02T06:47:31;101817.72;;;10.00;76.53
53858;BME280;39763;51.188;6.690;2023-02-02T06:49:02;101825.53;;;10.06;76.55
53858;BME280;39763;51.188;6.690;2023-02-02T06:50:34;101814.06;;;10.10;76.33
53858;BME280;39763;51.188;6.690;2023-02-02T06:52:05;101820.16;;;10.13;76.09
53858;BME280;39763;51.188;6.690;2023-02-02T06:53:39;101828.13;;;10.07;76.17
53858;BME280;39763;51.188;6.690;2023-02-02T06:55:10;101833.38;;;10.07;76.14
53858;BME280;39763;51.188;6.690;2023-02-02T06:56:42;101827.28;;;10.05;76.44
53858;BME280;39763;51.188;6.690;2023-02-02T06:58:13;101822.94;;;10.03;76.11
53858;BME280;39763;51.188;6.690;2023-02-02T06:59:45;101823.81;;;10.02;76.18
53858;BME280;39763;51.188;6.690;2023-02-02T07:01:17;101833.50;;;9.97;76.63
53858;BME280;39763;51.188;6.690;2023-02-02T07:02:49;101823.06;;;9.92;76.51
53858;BME280;39763;51.188;6.690;2023-02-02T07:04:21;101827.50;;;9.87;76.85
53858;BME280;39763;51.188;6.690;2023-02-02T07:05:52;101837.13;;;9.88;76.72
53858;BME280;39763;51.188;6.690;2023-02-02T07:07:24;101831.00;;;9.87;77.33
53858;BME280;39763;51.188;6.690;2023-02-02T07:08:56;101840.69;;;9.79;77.25
53858;BME280;39763;51.188;6.690;2023-02-02T07:10:35;101838.13;;;9.76;77.73
53858;BME280;39763;51.188;6.690;2023-02-02T07:12:26;101846.91;;;9.74;77.78
53858;BME280;39763;51.188;6.690;2023-02-02T07:13:58;101834.66;;;9.76;77.74
53858;BME280;39763;51.188;6.690;2023-02-02T07:15:29;101841.69;;;9.71;77.79
53858;BME280;39763;51.188;6.690;2023-02-02T07:17:01;101839.03;;;9.74;78.09
53858;BME280;39763;51.188;6.690;2023-02-02T07:18:32;101836.44;;;9.71;77.91
53858;BME280;39763;51.188;6.690;2023-02-02T07:20:04;101843.41;;;9.75;78.06
53858;BME280;39763;51.188;6.690;2023-02-02T07:21:36;101839.91;;;9.76;77.73
53858;BME280;39763;51.188;6.690;2023-02-02T07:23:07;101842.44;;;9.82;78.06
53858;BME280;39763;51.188;6.690;2023-02-02T07:24:40;101848.44;;;9.93;77.85
53858;BME280;39763;51.188;6.690;2023-02-02T07:26:12;101836.03;;;10.03;77.41
53858;BME280;39763;51.188;6.690;2023-02-02T07:27:44;101846.53;;;10.04;77.43
53858;BME280;39763;51.188;6.690;2023-02-02T07:29:18;101844.63;;;10.18;77.03
53858;BME280;39763;51.188;6.690;2023-02-02T07:30:49;101842.75;;;10.27;76.42
53858;BME280;39763;51.188;6.690;2023-02-02T07:32:21;101846.19;;;10.32;76.35
53858;BME280;39763;51.188;6.690;2023-02-02T07:33:53;101853.13;;;10.37;76.10
53858;BME280;39763;51.188;6.690;2023-02-02T07:35:24;101854.94;;;10.31;75.84
53858;BME280;39763;51.188;6.690;2023-02-02T07:36:56;101847.25;;;10.18;75.97
53858;BME280;39763;51.188;6.690;2023-02-02T07:38:28;101848.94;;;10.22;76.12
53858;BME280;39763;51.188;6.690;2023-02-02T07:40:01;101850.63;;;10.27;76.07
53858;BME280;39763;51.188;6.690;2023-02-02T07:41:33;101848.97;;;10.21;75.95
53858;BME280;39763;51.188;6.690;2023-02-02T07:43:05;101864.78;;;10.13;76.19
53858;BME280;39763;51.188;6.690;2023-02-02T07:44:36;101851.72;;;10.09;76.73
53858;BME280;39763;51.188;6.690;2023-02-02T07:46:08;101850.88;;;10.07;76.48
53858;BME280;39763;51.188;6.690;2023-02-02T07:47:40;101848.16;;;10.11;76.45
53858;BME280;39763;51.188;6.690;2023-02-02T07:49:12;101850.72;;;10.17;76.65
53858;BME280;39763;51.188;6.690;2023-02-02T07:50:44;101853.34;;;10.17;76.50
53858;BME280;39763;51.188;6.690;2023-02-02T07:52:16;101848.91;;;10.24;76.36
53858;BME280;39763;51.188;6.690;2023-02-02T07:53:48;101854.97;;;10.28;76.58
53858;BME280;39763;51.188;6.690;2023-02-02T07:55:21;101862.81;;;10.31;76.14
53858;BME280;39763;51.188;6.690;2023-02-02T07:56:53;101856.69;;;10.32;76.04
53858;BME280;39763;51.188;6.690;2023-02-02T07:58:25;101863.00;;;10.18;76.25
53858;BME280;39763;51.188;6.690;2023-02-02T07:59:56;101855.16;;;10.12;76.06
53858;BME280;39763;51.188;6.690;2023-02-02T08:01:28;101850.84;;;10.08;76.67
53858;BME280;39763;51.188;6.690;2023-02-02T08:02:59;101858.66;;;10.11;77.01
53858;BME280;39763;51.188;6.690;2023-02-02T08:04:31;101858.66;;;10.13;77.00
53858;BME280;39763;51.188;6.690;2023-02-02T08:06:08;101850.75;;;10.19;76.75
53858;BME280;39763;51.188;6.690;2023-02-02T08:07:39;101858.47;;;10.30;76.75
53858;BME280;39763;51.188;6.690;2023-02-02T08:09:11;101851.41;;;10.35;76.58